createdAt,value
2024-01-01T00:00:23.485Z,990.62
2024-01-01T00:10:31.882Z,990.63
2024-01-01T00:15:35.954Z,990.71
2024-01-01T00:20:40.247Z,990.71
2024-01-01T00:25:44.343Z,990.70
2024-01-01T00:30:48.486Z,990.73
2024-01-01T00:35:52.636Z,990.70
2024-01-01T00:40:56.888Z,990.49
2024-01-01T00:46:01.001Z,990.60
2024-01-01T00:51:05.191Z,990.56
2024-01-01T00:56:09.302Z,990.64
2024-01-01T01:01:13.540Z,990.55
2024-01-01T01:06:23.844Z,990.71
2024-01-01T01:11:21.775Z,990.62
2024-01-01T01:16:25.952Z,990.45
2024-01-01T01:21:30.134Z,990.51
2024-01-01T01:26:34.245Z,990.24
2024-01-01T01:31:38.438Z,990.31
2024-01-01T01:36:42.591Z,990.35
2024-01-01T01:41:46.802Z,990.27
2024-01-01T01:46:52.729Z,990.36
2024-01-01T01:51:55.077Z,990.28
2024-01-01T01:56:59.253Z,990.27
2024-01-01T02:02:03.488Z,990.10
2024-01-01T02:07:07.610Z,990.06
2024-01-01T02:12:11.734Z,989.90
2024-01-01T02:17:15.898Z,990.00
2024-01-01T02:22:20.045Z,990.03
2024-01-01T02:27:24.224Z,990.01
2024-01-01T02:32:28.415Z,990.15
2024-01-01T02:37:32.575Z,990.19
2024-01-01T02:42:36.687Z,990.50
2024-01-01T02:47:41.017Z,990.68
2024-01-01T02:52:45.059Z,991.04
2024-01-01T02:57:49.175Z,991.14
2024-01-01T03:02:53.336Z,991.24
2024-01-01T03:07:57.596Z,991.06
2024-01-01T03:13:01.722Z,990.92
2024-01-01T03:18:06.317Z,990.88
2024-01-01T03:23:10.101Z,990.75
2024-01-01T03:28:14.166Z,990.79
2024-01-01T03:33:18.419Z,990.75
2024-01-01T03:38:22.610Z,990.69
2024-01-01T03:43:26.664Z,990.71
2024-01-01T03:48:30.932Z,990.70
2024-01-01T03:53:34.996Z,990.61
2024-01-01T03:58:39.209Z,990.58
2024-01-01T04:03:43.424Z,990.75
2024-01-01T04:08:47.438Z,990.76
2024-01-01T04:13:51.728Z,990.70
2024-01-01T04:18:55.897Z,990.68
2024-01-01T04:23:59.912Z,990.68
2024-01-01T04:29:04.204Z,990.63
2024-01-01T04:34:08.283Z,990.57
2024-01-01T04:39:12.488Z,990.60
2024-01-01T04:44:16.690Z,990.60
2024-01-01T04:49:18.883Z,990.72
2024-01-01T04:54:23.034Z,990.64
2024-01-01T04:59:27.240Z,990.62
2024-01-01T05:04:31.377Z,990.63
2024-01-01T05:09:35.527Z,990.60
2024-01-01T05:14:39.690Z,990.59
2024-01-01T05:19:43.871Z,990.73
2024-01-01T05:24:48.019Z,990.67
2024-01-01T05:29:52.171Z,990.65
2024-01-01T05:34:56.354Z,990.80
2024-01-01T05:40:00.588Z,990.76
2024-01-01T05:45:04.673Z,990.85
2024-01-01T05:50:08.918Z,990.86
2024-01-01T05:55:12.995Z,990.97
2024-01-01T06:00:17.126Z,990.94
2024-01-01T06:05:21.376Z,991.05
2024-01-01T06:10:25.494Z,991.16
2024-01-01T06:15:29.655Z,991.28
2024-01-01T06:20:33.787Z,991.27
2024-01-01T06:25:37.982Z,991.32
2024-01-01T06:30:42.184Z,991.48
2024-01-01T06:35:46.280Z,991.43
2024-01-01T06:40:50.471Z,991.57
2024-01-01T06:45:54.581Z,991.62
2024-01-01T06:50:58.790Z,991.64
2024-01-01T06:56:02.947Z,991.65
2024-01-01T07:01:07.140Z,991.77
2024-01-01T07:06:11.316Z,991.78
2024-01-01T07:11:15.506Z,992.01
2024-01-01T07:16:19.597Z,992.21
2024-01-01T07:21:23.784Z,992.35
2024-01-01T07:26:27.911Z,992.52
2024-01-01T07:31:32.088Z,992.46
2024-01-01T07:36:36.212Z,992.58
2024-01-01T07:41:40.384Z,992.56
2024-01-01T07:46:44.561Z,992.68
2024-01-01T07:51:48.728Z,992.64
2024-01-01T07:56:52.893Z,992.68
2024-01-01T08:01:57.071Z,992.78
2024-01-01T08:07:01.221Z,992.79
2024-01-01T08:12:05.368Z,992.92
2024-01-01T08:17:09.618Z,992.99
2024-01-01T08:22:13.730Z,992.98
2024-01-01T08:27:17.873Z,992.99
2024-01-01T08:32:22.103Z,993.19
2024-01-01T08:37:26.204Z,993.28
2024-01-01T08:42:30.358Z,993.34
2024-01-01T08:47:34.629Z,993.50
2024-01-01T08:52:38.693Z,993.41
2024-01-01T08:57:42.826Z,993.44
2024-01-01T09:02:47.005Z,993.47
2024-01-01T09:07:51.198Z,993.56
2024-01-01T09:12:55.318Z,993.67
2024-01-01T09:17:59.705Z,993.71
2024-01-01T09:23:03.685Z,993.75
2024-01-01T09:28:08.088Z,993.93
2024-01-01T09:33:12.039Z,993.92
2024-01-01T09:38:17.665Z,993.90
2024-01-01T09:43:20.297Z,994.03
2024-01-01T09:48:24.633Z,994.06
2024-01-01T09:53:28.679Z,994.04
2024-01-01T09:58:32.763Z,994.12
2024-01-01T10:03:36.928Z,994.06
2024-01-01T10:08:41.103Z,994.18
2024-01-01T10:13:45.339Z,994.22
2024-01-01T10:18:47.685Z,994.28
2024-01-01T10:23:57.692Z,994.30
2024-01-01T10:28:55.930Z,994.30
2024-01-01T10:34:00.106Z,994.28
2024-01-01T10:39:04.199Z,994.31
2024-01-01T10:44:08.428Z,994.37
2024-01-01T10:49:10.759Z,994.30
2024-01-01T10:54:14.796Z,994.41
2024-01-01T10:59:19.129Z,994.46
2024-01-01T11:04:23.193Z,994.50
2024-01-01T11:09:27.306Z,994.42
2024-01-01T11:14:31.466Z,994.50
2024-01-01T11:19:35.657Z,994.56
2024-01-01T11:24:39.758Z,994.59
2024-01-01T11:29:43.943Z,994.61
2024-01-01T11:34:54.126Z,994.64
2024-01-01T11:39:52.224Z,994.63
2024-01-01T11:44:56.427Z,994.65
2024-01-01T11:50:00.664Z,994.75
2024-01-01T11:55:04.741Z,994.74
2024-01-01T12:00:08.936Z,994.66
2024-01-01T12:05:13.246Z,994.55
2024-01-01T12:10:17.260Z,994.67
2024-01-01T12:15:21.426Z,994.61
2024-01-01T12:20:25.630Z,994.67
2024-01-01T12:25:29.713Z,994.64
2024-01-01T12:30:34.110Z,994.68
2024-01-01T12:35:38.072Z,994.66
2024-01-01T12:40:42.247Z,994.67
2024-01-01T12:45:46.351Z,994.80
2024-01-01T12:50:50.605Z,994.69
2024-01-01T12:55:54.726Z,994.74
2024-01-01T13:00:58.919Z,994.92
2024-01-01T13:06:03.137Z,994.88
2024-01-01T13:11:07.302Z,994.92
2024-01-01T13:16:11.333Z,994.93
2024-01-01T13:21:15.548Z,994.97
2024-01-01T13:26:19.707Z,995.04
2024-01-01T13:31:23.815Z,995.04
2024-01-01T13:36:28.026Z,995.11
2024-01-01T13:41:32.149Z,995.07
2024-01-01T13:46:36.350Z,995.30
2024-01-01T13:51:40.500Z,995.22
2024-01-01T13:56:44.694Z,995.28
2024-01-01T14:01:49.000Z,995.38
2024-01-01T14:06:53.018Z,995.37
2024-01-01T14:11:57.153Z,995.50
2024-01-01T14:17:01.377Z,995.53
2024-01-01T14:22:05.467Z,995.60
2024-01-01T14:27:09.631Z,995.60
2024-01-01T14:32:13.854Z,995.65
2024-01-01T14:37:17.969Z,995.73
2024-01-01T14:42:22.136Z,995.84
2024-01-01T14:47:26.501Z,995.89
2024-01-01T14:52:30.475Z,995.86
2024-01-01T14:57:34.644Z,996.00
2024-01-01T15:02:38.806Z,996.13
2024-01-01T15:07:43.006Z,996.12
2024-01-01T15:12:47.123Z,996.24
2024-01-01T15:17:51.410Z,996.35
2024-01-01T15:22:55.481Z,996.47
2024-01-01T15:27:59.610Z,996.38
2024-01-01T15:33:03.908Z,996.39
2024-01-01T15:38:07.924Z,996.42
2024-01-01T15:43:12.073Z,996.44
2024-01-01T15:48:17.402Z,996.52
2024-01-01T15:53:20.398Z,996.48
2024-01-01T15:58:24.547Z,996.61
2024-01-01T16:03:28.741Z,996.66
2024-01-01T16:08:32.876Z,996.55
2024-01-01T16:13:37.029Z,996.66
2024-01-01T16:18:39.392Z,996.70
2024-01-01T16:23:43.558Z,996.85
2024-01-01T16:28:47.657Z,996.83
2024-01-01T16:33:51.822Z,996.86
2024-01-01T16:38:55.967Z,996.79
2024-01-01T16:44:00.200Z,996.82
2024-01-01T16:49:04.335Z,996.82
2024-01-01T16:54:08.452Z,996.78
2024-01-01T16:59:12.688Z,996.78
2024-01-01T17:04:16.791Z,996.73
2024-01-01T17:09:23.919Z,996.78
2024-01-01T17:14:25.215Z,996.85
2024-01-01T17:19:29.308Z,997.02
2024-01-01T17:24:33.471Z,997.04
2024-01-01T17:29:37.633Z,997.09
2024-01-01T17:34:41.762Z,997.10
2024-01-01T17:39:45.942Z,997.08
2024-01-01T17:44:50.112Z,997.05
2024-01-01T17:49:54.296Z,997.07
2024-01-01T17:54:58.551Z,997.05
2024-01-01T18:00:02.576Z,997.18
2024-01-01T18:05:06.875Z,997.17
2024-01-01T18:10:10.931Z,997.14
2024-01-01T18:15:15.051Z,997.21
2024-01-01T18:20:19.258Z,997.24
2024-01-01T18:25:23.451Z,997.21
2024-01-01T18:30:27.581Z,997.23
2024-01-01T18:35:31.750Z,997.18
2024-01-01T18:40:39.894Z,997.29
2024-01-01T18:45:40.069Z,997.27
2024-01-01T18:50:44.293Z,997.19
2024-01-01T18:55:48.390Z,997.07
2024-01-01T19:00:52.578Z,997.15
2024-01-01T19:05:56.754Z,997.11
2024-01-01T19:11:00.882Z,997.07
2024-01-01T19:16:05.021Z,997.02
2024-01-01T19:21:09.201Z,997.09
2024-01-01T19:26:13.493Z,997.09
2024-01-01T19:31:17.501Z,997.01
2024-01-01T19:36:21.672Z,996.96
2024-01-01T19:41:25.857Z,996.85
2024-01-01T19:46:29.980Z,996.85
2024-01-01T19:51:34.159Z,996.80
2024-01-01T19:56:38.336Z,996.77
2024-01-01T20:01:42.517Z,996.61
2024-01-01T20:06:46.675Z,996.56
2024-01-01T20:11:50.837Z,996.64
2024-01-01T20:16:55.062Z,996.62
2024-01-01T20:21:59.123Z,996.53
2024-01-01T20:27:03.323Z,996.41
2024-01-01T20:32:07.571Z,996.44
2024-01-01T20:37:11.645Z,996.31
2024-01-01T20:42:15.771Z,996.27
2024-01-01T20:47:20.140Z,996.26
2024-01-01T20:52:28.149Z,996.24
2024-01-01T20:57:28.276Z,996.23
2024-01-01T21:02:32.500Z,996.22
2024-01-01T21:07:36.590Z,996.29
2024-01-01T21:12:40.837Z,996.24
2024-01-01T21:17:45.042Z,996.22
2024-01-01T21:22:49.166Z,996.21
2024-01-01T21:27:53.350Z,996.20
2024-01-01T21:32:57.440Z,995.98
2024-01-01T21:38:01.584Z,995.98
2024-01-01T21:43:05.993Z,995.93
2024-01-01T21:48:08.054Z,995.90
2024-01-01T21:53:12.232Z,995.94
2024-01-01T21:58:16.315Z,995.79
2024-01-01T22:03:20.541Z,995.77
2024-01-01T22:08:24.674Z,995.67
2024-01-01T22:13:28.860Z,995.70
2024-01-01T22:18:33.060Z,995.70
2024-01-01T22:23:37.198Z,995.62
2024-01-01T22:33:45.544Z,995.38
2024-01-01T22:38:49.679Z,995.33
2024-01-01T22:43:53.938Z,995.21
2024-01-01T22:48:58.057Z,995.03
2024-01-01T22:54:02.118Z,994.87
2024-01-01T22:59:06.364Z,994.83
2024-01-01T23:04:10.467Z,994.77
2024-01-01T23:09:14.627Z,994.61
2024-01-01T23:14:18.844Z,994.46
2024-01-01T23:19:23.002Z,994.41
2024-01-01T23:24:27.119Z,994.30
2024-01-01T23:29:31.340Z,994.05
2024-01-01T23:34:35.513Z,993.94
2024-01-01T23:39:39.602Z,993.83
2024-01-01T23:44:43.783Z,993.73
2024-01-01T23:49:47.944Z,993.81
2024-01-01T23:54:52.067Z,993.70
2024-01-01T23:59:56.251Z,993.38
